createdAt,value
2019-05-06T00:01:06.393Z,8.90
2019-05-06T00:03:36.484Z,8.90
2019-05-06T00:06:06.592Z,8.70
2019-05-06T00:08:36.588Z,8.40
2019-05-06T00:11:06.683Z,8.30
2019-05-06T00:13:36.683Z,8.10
2019-05-06T00:16:07.050Z,8.20
2019-05-06T00:18:37.144Z,8.40
2019-05-06T00:21:07.176Z,8.30
2019-05-06T00:23:41.679Z,8.20
2019-05-06T00:26:19.409Z,8.30
2019-05-06T00:28:51.215Z,8.30
2019-05-06T00:31:23.994Z,8.50
2019-05-06T00:33:55.138Z,8.60
2019-05-06T00:36:25.131Z,8.70
2019-05-06T00:38:56.869Z,8.60
2019-05-06T00:41:31.582Z,8.70
2019-05-06T00:44:03.917Z,8.60
2019-05-06T00:46:34.470Z,8.50
2019-05-06T00:49:03.971Z,8.30
2019-05-06T00:51:34.079Z,8.40
2019-05-06T00:54:20.867Z,8.50
2019-05-06T00:56:50.959Z,8.70
2019-05-06T00:59:23.821Z,8.80
2019-05-06T01:01:54.010Z,8.90
2019-05-06T01:04:24.502Z,8.70
2019-05-06T01:06:54.624Z,8.70
2019-05-06T01:09:25.695Z,8.90
2019-05-06T01:11:57.395Z,8.90
2019-05-06T01:14:29.199Z,9.00
2019-05-06T01:16:59.308Z,9.00
2019-05-06T01:19:29.295Z,9.00
2019-05-06T01:21:59.387Z,9.00
2019-05-06T01:24:29.379Z,9.00
2019-05-06T01:26:59.479Z,9.10
2019-05-06T01:29:29.477Z,9.10
2019-05-06T01:31:59.499Z,9.10
2019-05-06T01:34:29.491Z,9.10
2019-05-06T01:36:59.519Z,9.10
2019-05-06T01:39:31.231Z,9.10
2019-05-06T01:42:05.587Z,8.60
2019-05-06T01:44:35.655Z,8.40
2019-05-06T01:47:05.757Z,8.50
2019-05-06T01:49:35.782Z,8.70
2019-05-06T01:52:05.871Z,8.60
2019-05-06T01:54:35.967Z,8.70
2019-05-06T01:57:05.960Z,8.80
2019-05-06T01:59:36.042Z,8.80
2019-05-06T02:02:06.409Z,8.80
2019-05-06T02:04:36.436Z,8.70
2019-05-06T02:07:06.428Z,8.60
2019-05-06T02:09:36.464Z,8.70
2019-05-06T02:12:06.527Z,8.70
2019-05-06T02:14:36.640Z,8.60
2019-05-06T02:17:06.667Z,8.50
2019-05-06T02:19:37.063Z,8.40
2019-05-06T02:22:08.733Z,8.40
2019-05-06T02:24:49.408Z,8.40
2019-05-06T02:27:19.441Z,8.20
2019-05-06T02:30:00.203Z,8.30
2019-05-06T02:32:36.349Z,8.30
2019-05-06T02:35:20.459Z,8.40
2019-05-06T02:37:50.527Z,8.50
2019-05-06T02:40:26.137Z,8.70
2019-05-06T02:42:56.335Z,8.80
2019-05-06T02:45:26.488Z,8.80
2019-05-06T02:48:04.575Z,8.70
2019-05-06T02:50:45.468Z,8.80
2019-05-06T02:53:17.171Z,8.60
2019-05-06T02:55:47.132Z,8.30
2019-05-06T02:58:17.067Z,8.30
2019-05-06T03:00:47.089Z,8.30
2019-05-06T03:03:17.156Z,8.30
2019-05-06T03:05:47.264Z,8.20
2019-05-06T03:08:17.368Z,8.20
2019-05-06T03:10:47.429Z,8.20
2019-05-06T03:13:17.383Z,8.20
2019-05-06T03:15:47.443Z,8.10
2019-05-06T03:18:18.568Z,8.10
2019-05-06T03:20:59.395Z,8.10
2019-05-06T03:23:37.176Z,8.30
2019-05-06T03:26:07.292Z,8.40
2019-05-06T03:28:37.264Z,8.20
2019-05-06T03:31:08.321Z,8.00
2019-05-06T03:33:56.868Z,8.00
2019-05-06T03:36:18.659Z,8.00
2019-05-06T03:38:43.247Z,7.90
2019-05-06T03:41:13.964Z,8.00
2019-05-06T03:43:45.150Z,8.00
2019-05-06T03:46:23.337Z,7.90
2019-05-06T03:49:03.621Z,8.00
2019-05-06T03:51:34.204Z,8.00
2019-05-06T03:54:04.468Z,8.00
2019-05-06T03:56:35.424Z,7.90
2019-05-06T03:59:07.008Z,7.80
2019-05-06T04:01:37.252Z,8.00
2019-05-06T04:04:07.986Z,8.10
2019-05-06T04:06:38.142Z,7.90
2019-05-06T04:09:08.252Z,7.80
2019-05-06T04:11:39.746Z,7.90
2019-05-06T04:14:13.941Z,7.90
2019-05-06T04:16:53.205Z,8.00
2019-05-06T04:19:33.109Z,7.90
2019-05-06T04:22:18.452Z,8.00
2019-05-06T04:24:54.241Z,8.00
2019-05-06T04:27:42.756Z,8.20
2019-05-06T04:30:13.477Z,8.30
2019-05-06T04:32:43.727Z,8.20
2019-05-06T04:35:14.207Z,8.20
2019-05-06T04:37:44.306Z,8.00
2019-05-06T04:40:14.622Z,8.00
2019-05-06T04:42:44.739Z,8.10
2019-05-06T04:45:17.253Z,8.10
2019-05-06T04:47:46.648Z,8.00
2019-05-06T04:50:16.844Z,8.00
2019-05-06T04:52:48.576Z,8.10
2019-05-06T04:55:18.683Z,8.10
2019-05-06T04:57:48.752Z,8.00
2019-05-06T05:00:18.848Z,8.00
2019-05-06T05:02:48.911Z,8.20
2019-05-06T05:05:19.032Z,8.10
2019-05-06T05:07:49.115Z,8.20
2019-05-06T05:10:23.103Z,8.30
2019-05-06T05:12:57.032Z,8.30
2019-05-06T05:15:45.064Z,8.50
2019-05-06T05:18:25.343Z,8.40
2019-05-06T05:20:55.555Z,8.30
2019-05-06T05:23:25.648Z,8.30
2019-05-06T05:25:55.751Z,8.30
2019-05-06T05:28:25.852Z,8.40
2019-05-06T05:30:55.988Z,8.40
2019-05-06T05:33:26.150Z,8.50
2019-05-06T05:35:56.147Z,8.60
2019-05-06T05:38:26.239Z,8.60
2019-05-06T05:40:56.239Z,8.50
2019-05-06T05:43:28.572Z,8.50
2019-05-06T05:45:58.971Z,8.60
2019-05-06T05:48:39.607Z,8.60
2019-05-06T05:51:09.620Z,8.60
2019-05-06T05:53:40.091Z,8.50
2019-05-06T05:56:12.263Z,8.60
2019-05-06T05:58:42.434Z,8.70
2019-05-06T06:01:12.836Z,8.70
2019-05-06T06:03:43.112Z,8.70
2019-05-06T06:06:12.999Z,8.80
2019-05-06T06:08:43.244Z,8.80
2019-05-06T06:11:30.008Z,8.80
2019-05-06T06:14:02.987Z,9.00
2019-05-06T06:16:43.858Z,9.00
2019-05-06T06:19:15.583Z,9.00
2019-05-06T06:21:47.391Z,9.00
2019-05-06T06:24:19.124Z,8.90
2019-05-06T06:26:49.231Z,8.90
2019-05-06T06:29:19.343Z,9.00
2019-05-06T06:32:07.831Z,9.00
2019-05-06T06:34:42.907Z,9.10
2019-05-06T06:37:33.037Z,9.20
2019-05-06T06:40:04.314Z,9.30
2019-05-06T06:42:34.304Z,9.30
2019-05-06T06:45:05.364Z,9.30
2019-05-06T06:47:35.427Z,9.30
2019-05-06T06:50:05.731Z,9.40
2019-05-06T06:52:35.796Z,9.40
2019-05-06T06:55:07.295Z,9.40
2019-05-06T06:57:42.456Z,9.30
2019-05-06T07:00:33.132Z,9.30
2019-05-06T07:03:16.787Z,9.40
2019-05-06T07:05:48.595Z,9.50
2019-05-06T07:08:32.061Z,9.50
2019-05-06T07:10:52.402Z,9.40
2019-05-06T07:13:23.160Z,9.40
2019-05-06T07:15:53.355Z,9.30
2019-05-06T07:18:23.459Z,9.40
2019-05-06T07:21:04.562Z,9.40
2019-05-06T07:23:34.700Z,9.60
2019-05-06T07:26:04.889Z,9.60
2019-05-06T07:28:35.005Z,9.70
2019-05-06T07:31:20.672Z,9.80
2019-05-06T07:33:37.251Z,10.00
2019-05-06T07:36:07.367Z,10.10
2019-05-06T07:38:39.111Z,10.20
2019-05-06T07:41:32.599Z,10.20
2019-05-06T07:44:05.761Z,10.20
2019-05-06T07:46:52.565Z,10.10
2019-05-06T07:49:23.546Z,10.20
2019-05-06T07:51:56.727Z,10.20
2019-05-06T07:54:33.356Z,10.40
2019-05-06T07:57:04.616Z,10.50
2019-05-06T07:59:40.093Z,10.50
2019-05-06T08:02:13.187Z,10.70
2019-05-06T08:04:53.669Z,10.60
2019-05-06T08:07:25.663Z,10.60
2019-05-06T08:09:56.387Z,10.60
2019-05-06T08:12:27.883Z,10.70
2019-05-06T08:17:55.067Z,10.60
2019-05-06T08:20:27.153Z,10.70
2019-05-06T08:23:02.190Z,10.80
2019-05-06T08:25:42.290Z,10.80
2019-05-06T08:28:13.239Z,10.80
2019-05-06T08:30:43.629Z,10.90
2019-05-06T08:33:23.484Z,11.10
2019-05-06T08:36:07.570Z,11.20
2019-05-06T08:38:25.400Z,11.40
2019-05-06T08:40:55.440Z,11.50
2019-05-06T08:43:25.516Z,11.50
2019-05-06T08:45:55.628Z,11.50
2019-05-06T08:48:25.637Z,11.70
2019-05-06T08:51:02.522Z,11.70
2019-05-06T08:53:33.990Z,11.80
2019-05-06T08:56:05.441Z,11.70
2019-05-06T08:58:47.829Z,11.70
2019-05-06T09:01:25.778Z,11.80
2019-05-06T09:04:08.308Z,11.90
2019-05-06T09:06:33.138Z,12.10
2019-05-06T09:08:59.466Z,12.10
2019-05-06T09:11:32.004Z,12.20
2019-05-06T09:14:03.400Z,12.30
2019-05-06T09:16:50.494Z,12.30
2019-05-06T09:19:23.379Z,12.10
2019-05-06T09:21:53.431Z,12.00
2019-05-06T09:24:23.626Z,12.10
2019-05-06T09:27:15.511Z,12.10
2019-05-06T09:29:47.286Z,12.10
2019-05-06T09:32:19.099Z,12.40
2019-05-06T09:34:56.702Z,12.50
2019-05-06T09:37:28.649Z,12.70
2019-05-06T09:40:02.811Z,12.90
2019-05-06T09:42:33.182Z,13.10
2019-05-06T09:45:03.453Z,13.00
2019-05-06T09:47:44.044Z,13.10
2019-05-06T09:50:16.079Z,13.10
2019-05-06T09:52:46.180Z,13.00
2019-05-06T09:55:22.170Z,13.20
2019-05-06T09:57:59.535Z,13.30
2019-05-06T10:00:32.950Z,13.20
2019-05-06T10:03:03.692Z,13.30
2019-05-06T10:05:34.055Z,13.40
2019-05-06T10:08:04.197Z,13.60
2019-05-06T10:10:34.163Z,13.60
2019-05-06T10:13:05.343Z,13.70
2019-05-06T10:15:35.539Z,13.80
2019-05-06T10:18:09.095Z,13.90
2019-05-06T10:20:42.642Z,13.90
2019-05-06T10:23:14.632Z,13.90
2019-05-06T10:25:44.729Z,13.90
2019-05-06T10:28:33.872Z,13.90
2019-05-06T10:31:05.735Z,13.90
2019-05-06T10:33:37.467Z,13.90
2019-05-06T10:36:07.943Z,13.90
2019-05-06T10:38:53.048Z,14.00
2019-05-06T10:41:27.063Z,14.10
2019-05-06T10:44:18.029Z,14.10
2019-05-06T10:46:48.135Z,14.10
2019-05-06T10:49:18.272Z,14.30
2019-05-06T10:51:53.051Z,14.50
2019-05-06T10:54:24.127Z,14.50
2019-05-06T10:57:07.353Z,14.60
2019-05-06T10:59:37.348Z,14.60
2019-05-06T11:02:09.096Z,14.50
2019-05-06T11:04:39.236Z,14.50
2019-05-06T11:07:09.275Z,14.70
2019-05-06T11:09:39.381Z,14.90
2019-05-06T11:12:09.443Z,14.90
2019-05-06T11:14:39.549Z,15.10
2019-05-06T11:17:09.622Z,15.30
2019-05-06T11:19:39.751Z,15.30
2019-05-06T11:22:09.795Z,15.20
2019-05-06T11:24:42.052Z,15.30
2019-05-06T11:27:25.190Z,15.40
2019-05-06T11:29:52.906Z,15.40
2019-05-06T11:32:27.179Z,15.10
2019-05-06T11:35:03.804Z,15.20
2019-05-06T11:37:47.180Z,15.30
2019-05-06T11:40:16.663Z,15.30
2019-05-06T11:42:43.697Z,15.30
2019-05-06T11:45:23.517Z,15.30
2019-05-06T11:47:55.878Z,15.30
2019-05-06T11:50:25.512Z,15.30
2019-05-06T11:52:57.094Z,15.40
2019-05-06T11:55:31.901Z,15.50
2019-05-06T11:57:59.342Z,15.50
2019-05-06T12:00:33.255Z,15.60
2019-05-06T12:03:02.809Z,15.70
2019-05-06T12:05:33.043Z,15.50
2019-05-06T12:08:08.065Z,15.60
2019-05-06T12:10:34.800Z,16.00
2019-05-06T12:13:04.950Z,16.10
2019-05-06T12:15:35.308Z,16.10
2019-05-06T12:18:05.487Z,16.00
2019-05-06T12:20:43.604Z,16.10
2019-05-06T12:23:16.288Z,16.10
2019-05-06T12:25:46.452Z,16.20
2019-05-06T12:28:17.606Z,16.30
2019-05-06T12:30:47.847Z,16.20
2019-05-06T12:33:29.935Z,16.10
2019-05-06T12:36:13.957Z,16.00
2019-05-06T12:39:06.437Z,16.20
2019-05-06T12:41:36.800Z,16.30
2019-05-06T12:44:06.865Z,16.50
2019-05-06T12:46:38.688Z,16.40
2019-05-06T12:49:08.748Z,16.80
2019-05-06T12:51:38.795Z,16.90
2019-05-06T12:54:08.931Z,17.20
2019-05-06T12:56:39.143Z,16.70
2019-05-06T12:59:09.248Z,16.50
2019-05-06T13:01:39.317Z,16.90
2019-05-06T13:04:09.348Z,17.10
2019-05-06T13:06:39.354Z,17.30
2019-05-06T13:09:09.561Z,17.60
2019-05-06T13:11:39.973Z,17.50
2019-05-06T13:14:12.718Z,17.60
2019-05-06T13:16:42.959Z,17.70
2019-05-06T13:19:16.128Z,17.70
2019-05-06T13:21:44.635Z,17.70
2019-05-06T13:24:14.563Z,17.50
2019-05-06T13:26:44.596Z,16.90
2019-05-06T13:29:16.272Z,16.50
2019-05-06T13:31:46.417Z,16.80
2019-05-06T13:34:18.021Z,17.00
2019-05-06T13:36:48.196Z,17.60
2019-05-06T13:39:18.199Z,17.40
2019-05-06T13:41:48.271Z,17.80
2019-05-06T13:44:18.433Z,18.00
2019-05-06T13:46:52.848Z,18.20
2019-05-06T13:49:23.912Z,17.90
2019-05-06T13:51:55.784Z,18.00
2019-05-06T13:54:25.929Z,17.10
2019-05-06T13:56:56.252Z,17.20
2019-05-06T13:59:30.227Z,18.00
2019-05-06T14:01:59.819Z,18.80
2019-05-06T14:04:32.478Z,19.20
2019-05-06T14:07:06.458Z,19.30
2019-05-06T14:09:39.923Z,18.80
2019-05-06T14:12:05.865Z,18.70
2019-05-06T14:14:36.426Z,18.60
2019-05-06T14:17:08.528Z,19.20
2019-05-06T14:19:38.266Z,19.40
2019-05-06T14:22:08.368Z,19.40
2019-05-06T14:24:40.114Z,19.70
2019-05-06T14:27:11.722Z,19.30
2019-05-06T14:29:44.659Z,18.70
2019-05-06T14:32:15.008Z,19.00
2019-05-06T14:34:45.204Z,19.60
2019-05-06T14:37:17.943Z,20.50
2019-05-06T14:39:55.404Z,20.80
2019-05-06T14:42:22.171Z,21.40
2019-05-06T14:44:53.479Z,22.40
2019-05-06T14:47:27.783Z,23.00
2019-05-06T14:50:00.455Z,22.90
2019-05-06T14:52:33.874Z,23.10
2019-05-06T14:55:07.359Z,21.70
2019-05-06T14:57:42.853Z,22.20
2019-05-06T15:00:15.924Z,22.90
2019-05-06T15:02:45.963Z,22.50
2019-05-06T15:05:16.234Z,22.10
2019-05-06T15:07:46.314Z,22.10
2019-05-06T15:10:22.954Z,22.90
2019-05-06T15:12:48.359Z,23.80
2019-05-06T15:15:20.031Z,24.00
2019-05-06T15:17:53.237Z,23.40
2019-05-06T15:20:25.219Z,22.40
2019-05-06T15:22:55.544Z,23.10
2019-05-06T15:25:26.564Z,23.60
2019-05-06T15:27:59.804Z,24.20
2019-05-06T15:30:34.143Z,23.80
2019-05-06T15:33:07.156Z,24.20
2019-05-06T15:35:58.837Z,23.50
2019-05-06T15:38:30.799Z,23.20
2019-05-06T15:41:03.239Z,23.70
2019-05-06T15:43:34.916Z,23.30
2019-05-06T15:46:05.013Z,22.10
2019-05-06T15:48:35.987Z,22.50
2019-05-06T15:51:09.204Z,21.80
2019-05-06T15:53:39.192Z,21.00
2019-05-06T15:56:12.279Z,20.50
2019-05-06T15:58:42.505Z,20.80
2019-05-06T16:01:14.486Z,21.50
2019-05-06T16:03:44.511Z,23.20
2019-05-06T16:06:14.448Z,23.60
2019-05-06T16:08:44.684Z,22.50
2019-05-06T16:11:14.690Z,22.20
2019-05-06T16:13:45.150Z,22.20
2019-05-06T16:16:15.264Z,22.80
2019-05-06T16:18:45.406Z,22.70
2019-05-06T16:21:15.563Z,22.00
2019-05-06T16:23:47.304Z,22.60
2019-05-06T16:26:17.389Z,23.30
2019-05-06T16:28:52.999Z,24.40
2019-05-06T16:31:24.669Z,24.80
2019-05-06T16:33:55.720Z,24.80
2019-05-06T16:36:26.250Z,24.20
2019-05-06T16:38:56.331Z,23.20
2019-05-06T16:41:27.254Z,23.50
2019-05-06T16:43:57.247Z,23.30
2019-05-06T16:46:27.372Z,24.10
2019-05-06T16:48:58.560Z,24.70
2019-05-06T16:51:28.778Z,24.80
2019-05-06T16:53:58.890Z,24.50
2019-05-06T16:56:33.249Z,24.50
2019-05-06T16:59:09.152Z,24.50
2019-05-06T17:01:42.611Z,24.20
2019-05-06T17:04:17.231Z,22.80
2019-05-06T17:06:56.529Z,22.10
2019-05-06T17:09:28.326Z,21.40
2019-05-06T17:11:59.916Z,19.50
2019-05-06T17:14:32.187Z,19.20
2019-05-06T17:17:03.255Z,18.40
2019-05-06T17:19:34.423Z,18.30
2019-05-06T17:22:04.669Z,18.30
2019-05-06T17:24:34.945Z,18.40
2019-05-06T17:27:05.112Z,18.50
2019-05-06T17:29:48.639Z,18.30
2019-05-06T17:32:23.355Z,17.80
2019-05-06T17:34:57.426Z,17.60
2019-05-06T17:37:44.811Z,17.50
2019-05-06T17:40:16.723Z,17.20
2019-05-06T17:42:46.751Z,17.10
2019-05-06T17:45:34.694Z,17.30
2019-05-06T17:48:09.218Z,17.40
2019-05-06T17:50:39.359Z,17.50
2019-05-06T17:53:09.547Z,17.30
2019-05-06T17:55:39.642Z,17.30
2019-05-06T17:58:09.872Z,16.80
2019-05-06T18:00:40.013Z,16.60
2019-05-06T18:03:09.979Z,16.80
2019-05-06T18:05:42.119Z,16.70
2019-05-06T18:08:12.792Z,16.60
2019-05-06T18:10:43.015Z,16.50
2019-05-06T18:13:13.124Z,16.30
2019-05-06T18:15:43.251Z,16.20
2019-05-06T18:18:13.363Z,16.10
2019-05-06T18:20:43.367Z,16.00
2019-05-06T18:23:13.467Z,15.90
2019-05-06T18:25:43.588Z,15.70
2019-05-06T18:28:13.730Z,15.60
2019-05-06T18:30:44.883Z,15.50
2019-05-06T18:33:15.037Z,15.40
2019-05-06T18:35:45.095Z,15.30
2019-05-06T18:38:15.199Z,15.10
2019-05-06T18:40:45.283Z,15.00
2019-05-06T18:43:15.484Z,14.70
2019-05-06T18:45:45.619Z,14.50
2019-05-06T18:48:15.833Z,14.30
2019-05-06T18:50:45.835Z,14.10
2019-05-06T18:53:16.835Z,14.10
2019-05-06T18:55:46.843Z,14.10
2019-05-06T18:58:17.873Z,14.10
2019-05-06T19:00:47.919Z,14.00
2019-05-06T19:03:18.023Z,13.70
2019-05-06T19:05:48.099Z,13.70
2019-05-06T19:08:21.867Z,13.80
2019-05-06T19:10:53.205Z,13.80
2019-05-06T19:13:23.347Z,13.80
2019-05-06T19:15:53.386Z,13.80
2019-05-06T19:18:23.463Z,13.70
2019-05-06T19:20:53.743Z,13.60
2019-05-06T19:23:23.879Z,13.70
2019-05-06T19:25:54.014Z,13.60
2019-05-06T19:28:24.124Z,13.60
2019-05-06T19:30:54.366Z,13.50
2019-05-06T19:33:24.363Z,13.50
2019-05-06T19:35:54.360Z,13.30
2019-05-06T19:38:24.565Z,13.10
2019-05-06T19:41:15.446Z,13.00
2019-05-06T19:43:45.553Z,13.00
2019-05-06T19:46:15.594Z,13.00
2019-05-06T19:48:45.642Z,12.90
2019-05-06T19:51:15.797Z,12.90
2019-05-06T19:53:45.823Z,12.30
2019-05-06T19:56:15.866Z,12.50
2019-05-06T19:58:46.007Z,12.50
2019-05-06T20:01:16.072Z,12.50
2019-05-06T20:03:46.185Z,12.60
2019-05-06T20:06:23.779Z,12.60
2019-05-06T20:09:07.112Z,12.10
2019-05-06T20:11:39.627Z,12.30
2019-05-06T20:14:09.770Z,12.30
2019-05-06T20:16:41.859Z,12.30
2019-05-06T20:19:14.062Z,12.20
2019-05-06T20:21:43.233Z,12.30
2019-05-06T20:24:13.378Z,12.20
2019-05-06T20:26:43.391Z,12.30
2019-05-06T20:29:13.431Z,12.20
2019-05-06T20:31:43.572Z,12.10
2019-05-06T20:34:13.613Z,12.00
2019-05-06T20:36:43.752Z,11.90
2019-05-06T20:39:13.759Z,11.90
2019-05-06T20:41:43.901Z,11.90
2019-05-06T20:44:14.014Z,11.80
2019-05-06T20:46:44.127Z,11.80
2019-05-06T20:49:14.067Z,11.70
2019-05-06T20:51:44.226Z,11.60
2019-05-06T20:54:14.297Z,11.60
2019-05-06T20:56:44.338Z,11.60
2019-05-06T20:59:14.410Z,11.60
2019-05-06T21:01:44.555Z,11.50
2019-05-06T21:04:14.563Z,11.50
2019-05-06T21:06:44.533Z,11.50
2019-05-06T21:09:14.639Z,11.50
2019-05-06T21:11:44.700Z,11.40
2019-05-06T21:14:14.767Z,11.40
2019-05-06T21:16:47.843Z,11.40
2019-05-06T21:19:17.378Z,11.40
2019-05-06T21:21:47.518Z,11.40
2019-05-06T21:24:17.551Z,11.40
2019-05-06T21:26:47.563Z,11.40
2019-05-06T21:29:17.595Z,11.50
2019-05-06T21:31:47.707Z,11.40
2019-05-06T21:34:17.715Z,11.30
2019-05-06T21:36:47.691Z,11.30
2019-05-06T21:39:17.767Z,11.30
2019-05-06T21:41:47.877Z,11.30
2019-05-06T21:44:17.888Z,11.40
2019-05-06T21:46:47.978Z,11.40
2019-05-06T21:49:18.016Z,11.40
2019-05-06T21:51:48.259Z,11.50
2019-05-06T21:54:18.308Z,11.50
2019-05-06T21:56:48.303Z,11.50
2019-05-06T21:59:18.450Z,11.40
2019-05-06T22:01:48.873Z,11.50
2019-05-06T22:04:22.981Z,11.30
2019-05-06T22:06:52.548Z,11.20
2019-05-06T22:09:22.778Z,11.00
2019-05-06T22:11:53.097Z,10.90
2019-05-06T22:14:23.289Z,10.90
2019-05-06T22:16:53.229Z,11.20
2019-05-06T22:19:23.259Z,11.40
2019-05-06T22:21:55.015Z,11.50
2019-05-06T22:24:33.142Z,11.60
2019-05-06T22:27:03.238Z,11.70
2019-05-06T22:29:33.307Z,11.80
2019-05-06T22:32:03.494Z,11.80
2019-05-06T22:34:33.569Z,11.80
2019-05-06T22:37:03.775Z,11.80
2019-05-06T22:39:36.699Z,11.80
2019-05-06T22:42:10.494Z,11.80
2019-05-06T22:44:42.896Z,11.70
2019-05-06T22:47:12.759Z,11.70
2019-05-06T22:49:43.791Z,11.70
2019-05-06T22:52:14.807Z,11.70
2019-05-06T22:54:44.809Z,11.70
2019-05-06T22:57:14.852Z,11.70
2019-05-06T22:59:44.929Z,11.70
2019-05-06T23:02:22.685Z,11.70
2019-05-06T23:04:58.355Z,11.60
2019-05-06T23:07:28.451Z,11.60
2019-05-06T23:09:58.555Z,11.50
2019-05-06T23:12:28.550Z,11.50
2019-05-06T23:14:58.656Z,11.50
2019-05-06T23:17:28.584Z,11.40
2019-05-06T23:19:58.615Z,11.50
2019-05-06T23:22:28.614Z,11.40
2019-05-06T23:24:58.659Z,11.40
2019-05-06T23:27:28.571Z,11.40
2019-05-06T23:29:58.599Z,11.20
2019-05-06T23:32:28.633Z,10.80
2019-05-06T23:34:59.535Z,10.70
2019-05-06T23:37:28.434Z,10.60
2019-05-06T23:40:35.662Z,10.60
2019-05-06T23:43:42.733Z,10.50
2019-05-06T23:46:48.908Z,10.30
2019-05-06T23:49:54.707Z,10.10
2019-05-06T23:53:02.796Z,10.00
2019-05-06T23:56:07.899Z,9.80
2019-05-06T23:58:37.967Z,10.10
